Paddy Guidry — WTG3900 — position and weather

sailwx.info

Track history (hours):
 
Tides and Currents Weather Stations Pressure Air Temp Water Temp Dewpoint Dewpoint Depression Visibility Wind Speed Wind Dir Waves Ship Positions

Paddy Guidry

Owner: CAPTAIN TIMMY INC, GALLIANO, LA. More information available from US FCC via Universal Licensing System and Coast Guard Vessel Documentation Center.

Last reported at 2015-Jun-12 22:33 UTC. Time now 2015-Jul-01 01:50 UTC.
Position N 29°34' W 090°35'.
Warning: this ship's position is 18 days out of date.

; draft 1.5 m.

Type: Tug. MMSI: 366998310.

Date/timePositionNaut miles runAvg speedWind from/ knotsBaromVisibWave heightAir tempDewpointWater temp
2015-Jun-12 22:33N 29°34' W 090°35'6 6.0
2015-Jun-12 21:33N 29°36' W 090°41'4 4.4
2015-Jun-12 20:33N 29°34' W 090°45'10 1.1
2015-Jun-12 11:17N 29°34' W 090°56'3 0.3
2015-Jun-12 01:28N 29°32' W 090°53'4 4.5
2015-Jun-12 00:33N 29°32' W 090°48'4 4.0
2015-Jun-11 23:33N 29°34' W 090°44'1 1.2
2015-Jun-11 22:33N 29°34' W 090°43'1 0.5
2015-Jun-11 21:33N 29°33' W 090°43'4 4.3
2015-Jun-11 20:33N 29°29' W 090°43'  
Track history (hours):
 
Tides and Currents Weather Stations Pressure Air Temp Water Temp Dewpoint Dewpoint Depression Visibility Wind Speed Wind Dir Waves Ship Positions

Paddy Guidry

Owner: CAPTAIN TIMMY INC, GALLIANO, LA. More information available from US FCC via Universal Licensing System and Coast Guard Vessel Documentation Center.

Last reported at 2015-Jun-12 22:33 UTC. Time now 2015-Jul-01 01:50 UTC.
Position N 29°34' W 090°35'.
Warning: this ship's position is 18 days out of date.

; draft 1.5 m.

Type: Tug. MMSI: 366998310.

Date/timePositionNaut miles runAvg speedWind from/ knotsBaromVisibWave heightAir tempDewpointWater temp
2015-Jun-12 22:33N 29°34' W 090°35'6 6.0
2015-Jun-12 21:33N 29°36' W 090°41'4 4.4
2015-Jun-12 20:33N 29°34' W 090°45'10 1.1
2015-Jun-12 11:17N 29°34' W 090°56'3 0.3
2015-Jun-12 01:28N 29°32' W 090°53'4 4.5
2015-Jun-12 00:33N 29°32' W 090°48'4 4.0
2015-Jun-11 23:33N 29°34' W 090°44'1 1.2
2015-Jun-11 22:33N 29°34' W 090°43'1 0.5
2015-Jun-11 21:33N 29°33' W 090°43'4 4.3
2015-Jun-11 20:33N 29°29' W 090°43'  

Dump ship's entire track history